createdAt,value
2019-03-21T00:02:11.359Z,102087.13
2019-03-21T00:04:48.133Z,102089.32
2019-03-21T00:07:19.437Z,102092.45
2019-03-21T00:10:12.553Z,102079.88
2019-03-21T00:12:44.145Z,102083.28
2019-03-21T00:15:21.558Z,102087.17
2019-03-21T00:17:55.787Z,102081.99
2019-03-21T00:20:27.175Z,102087.22
2019-03-21T00:22:58.445Z,102077.17
2019-03-21T00:25:29.706Z,102080.26
2019-03-21T00:28:01.468Z,102076.86
2019-03-21T00:30:32.611Z,102076.00
2019-03-21T00:33:04.011Z,102076.42
2019-03-21T00:35:35.745Z,102077.84
2019-03-21T00:38:08.064Z,102074.91
2019-03-21T00:40:44.021Z,102076.23
2019-03-21T00:43:16.655Z,102074.98
2019-03-21T00:45:48.928Z,102073.71
2019-03-21T00:48:21.396Z,102073.20
2019-03-21T00:50:52.777Z,102071.13
2019-03-21T00:53:24.049Z,102077.18
2019-03-21T00:55:58.456Z,102081.14
2019-03-21T00:58:30.628Z,102078.13
2019-03-21T01:01:07.967Z,102076.80
2019-03-21T01:16:44.807Z,102070.02
2019-03-21T01:19:15.960Z,102075.30
2019-03-21T01:21:47.080Z,102074.91
2019-03-21T01:24:18.357Z,102071.48
2019-03-21T01:26:49.370Z,102070.69
2019-03-21T01:29:20.498Z,102072.45
2019-03-21T01:31:51.510Z,102066.75
2019-03-21T01:34:23.334Z,102074.16
2019-03-21T01:36:54.501Z,102065.55
2019-03-21T01:39:25.699Z,102070.42
2019-03-21T01:41:56.648Z,102070.03
2019-03-21T01:44:28.704Z,102072.65
2019-03-21T01:46:59.916Z,102069.64
2019-03-21T01:49:30.970Z,102075.73
2019-03-21T01:52:02.057Z,102064.51
2019-03-21T01:54:33.105Z,102074.97
2019-03-21T01:57:04.094Z,102067.14
2019-03-21T01:59:35.301Z,102078.05
2019-03-21T02:02:06.417Z,102079.39
2019-03-21T02:04:37.527Z,102078.61
2019-03-21T02:07:08.618Z,102076.43
2019-03-21T02:09:39.850Z,102075.59
2019-03-21T02:12:10.933Z,102076.02
2019-03-21T02:14:51.823Z,102075.62
2019-03-21T02:17:14.919Z,102079.16
2019-03-21T02:19:46.000Z,102082.65
2019-03-21T02:22:17.074Z,102080.47
2019-03-21T02:24:48.269Z,102082.67
2019-03-21T02:27:19.292Z,102082.70
2019-03-21T02:29:50.338Z,102082.72
2019-03-21T02:32:21.425Z,102076.17
2019-03-21T02:34:52.518Z,102077.50
2019-03-21T02:37:23.730Z,102081.41
2019-03-21T02:39:59.891Z,102078.41
2019-03-21T02:42:29.167Z,102076.63
2019-03-21T02:45:08.431Z,102079.29
2019-03-21T02:47:34.125Z,102079.70
2019-03-21T02:50:08.519Z,102082.35
2019-03-21T02:52:39.664Z,102080.16
2019-03-21T02:55:11.864Z,102084.09
2019-03-21T02:57:43.172Z,102077.56
2019-03-21T03:00:23.268Z,102082.78
2019-03-21T03:02:57.216Z,102079.76
2019-03-21T03:05:31.837Z,102075.39
2019-03-21T03:08:03.192Z,102076.66
2019-03-21T03:10:49.518Z,102078.45
2019-03-21T03:13:20.692Z,102075.43
2019-03-21T03:15:52.894Z,102072.80
2019-03-21T03:18:25.234Z,102079.34
2019-03-21T03:20:56.396Z,102081.95
2019-03-21T03:23:27.638Z,102079.80
2019-03-21T03:26:00.313Z,102084.58
2019-03-21T03:28:40.339Z,102075.88
2019-03-21T03:31:11.403Z,102078.48
2019-03-21T03:33:42.716Z,102078.92
2019-03-21T03:36:15.871Z,102084.59
2019-03-21T03:38:46.995Z,102087.20
2019-03-21T03:41:20.180Z,102092.02
2019-03-21T03:43:51.214Z,102088.13
2019-03-21T03:46:22.401Z,102093.33
2019-03-21T03:48:53.444Z,102092.90
2019-03-21T03:51:24.553Z,102095.09
2019-03-21T03:53:55.846Z,102088.56
2019-03-21T03:56:27.077Z,102102.52
2019-03-21T03:59:04.581Z,102102.95
2019-03-21T04:01:35.721Z,102101.64
2019-03-21T04:04:07.866Z,102099.47
2019-03-21T04:06:40.500Z,102103.36
2019-03-21T04:09:12.845Z,102106.85
2019-03-21T04:11:45.310Z,102104.22
2019-03-21T04:14:16.384Z,102108.15
2019-03-21T04:16:47.642Z,102116.00
2019-03-21T04:19:18.690Z,102120.81
2019-03-21T04:21:49.901Z,102123.41
2019-03-21T04:24:21.096Z,102121.25
2019-03-21T04:26:52.140Z,102123.42
2019-03-21T04:29:23.158Z,102120.37
2019-03-21T04:31:54.403Z,102121.25
2019-03-21T04:34:25.702Z,102124.72
2019-03-21T04:36:56.777Z,102125.16
2019-03-21T04:39:28.167Z,102123.42
2019-03-21T04:41:59.401Z,102127.35
2019-03-21T04:44:30.558Z,102126.91
2019-03-21T04:47:03.235Z,102128.66
2019-03-21T04:49:34.463Z,102127.33
2019-03-21T04:52:06.085Z,102126.91
2019-03-21T04:54:37.147Z,102127.34
2019-03-21T04:57:08.363Z,102127.77
2019-03-21T04:59:39.580Z,102126.91
2019-03-21T05:02:10.803Z,102125.16
2019-03-21T05:04:41.969Z,102128.22
2019-03-21T05:07:13.140Z,102137.34
2019-03-21T05:09:44.478Z,102132.56
2019-03-21T05:12:15.625Z,102131.25
2019-03-21T05:14:46.890Z,102124.71
2019-03-21T05:17:19.746Z,102130.37
2019-03-21T05:19:50.856Z,102126.02
2019-03-21T05:22:22.045Z,102127.75
2019-03-21T05:24:53.139Z,102127.30
2019-03-21T05:27:24.269Z,102121.64
2019-03-21T05:29:55.399Z,102129.05
2019-03-21T05:32:26.455Z,102132.53
2019-03-21T05:34:57.564Z,102135.16
2019-03-21T05:37:28.878Z,102145.16
2019-03-21T05:40:00.364Z,102143.42
2019-03-21T05:42:31.720Z,102140.38
2019-03-21T05:45:02.969Z,102134.22
2019-03-21T05:47:34.436Z,102125.94
2019-03-21T05:50:08.754Z,102128.07
2019-03-21T05:52:40.155Z,102132.01
2019-03-21T05:55:12.312Z,102130.25
2019-03-21T05:57:44.414Z,102124.14
2019-03-21T06:00:36.937Z,102125.39
2019-03-21T06:03:11.665Z,102124.06
2019-03-21T06:05:48.820Z,102122.31
2019-03-21T06:08:23.494Z,102127.48
2019-03-21T06:10:54.580Z,102116.98
2019-03-21T06:13:25.649Z,102112.15
2019-03-21T06:16:08.476Z,102115.15
2019-03-21T06:19:04.327Z,102112.44
2019-03-21T06:21:41.619Z,102116.37
2019-03-21T06:24:28.225Z,102111.94
2019-03-21T06:27:14.502Z,102110.13
2019-03-21T06:29:41.642Z,102105.75
2019-03-21T06:32:13.111Z,102100.87
2019-03-21T06:34:44.662Z,102093.38
2019-03-21T06:37:15.792Z,102089.41
2019-03-21T06:39:46.982Z,102083.33
2019-03-21T06:42:21.057Z,102084.17
2019-03-21T06:44:52.212Z,102089.83
2019-03-21T06:47:23.329Z,102090.71
2019-03-21T06:49:54.446Z,102089.31
2019-03-21T06:52:25.562Z,102089.21
2019-03-21T06:54:56.708Z,102090.47
2019-03-21T06:57:27.672Z,102086.48
2019-03-21T06:59:58.831Z,102086.88
2019-03-21T07:02:29.901Z,102079.31
2019-03-21T07:05:01.213Z,102083.67
2019-03-21T07:07:32.521Z,102084.94
2019-03-21T07:10:05.306Z,102085.70
2019-03-21T07:12:37.689Z,102083.47
2019-03-21T07:15:11.747Z,102077.56
2019-03-21T07:17:42.894Z,102076.63
2019-03-21T07:20:16.633Z,102071.30
2019-03-21T07:22:47.732Z,102076.90
2019-03-21T07:25:18.969Z,102070.26
2019-03-21T07:27:50.257Z,102074.00
2019-03-21T07:30:21.456Z,102074.22
2019-03-21T07:32:52.729Z,102070.52
2019-03-21T07:35:23.927Z,102066.01
2019-03-21T07:37:55.027Z,102066.04
2019-03-21T07:40:26.152Z,102068.89
2019-03-21T07:42:57.310Z,102069.60
2019-03-21T07:45:28.884Z,102062.99
2019-03-21T07:48:00.036Z,102061.96
2019-03-21T07:50:31.142Z,102059.75
2019-03-21T07:53:02.196Z,102058.81
2019-03-21T07:55:34.508Z,102054.52
2019-03-21T07:58:06.796Z,102057.97
2019-03-21T08:00:38.663Z,102050.61
2019-03-21T08:03:09.823Z,102051.37
2019-03-21T08:05:41.028Z,102055.98
2019-03-21T08:08:12.296Z,102046.98
2019-03-21T08:10:43.719Z,102040.07
2019-03-21T08:13:14.715Z,102039.53
2019-03-21T08:15:45.949Z,102036.91
2019-03-21T08:18:17.160Z,102033.64
2019-03-21T08:20:57.320Z,102030.75
2019-03-21T08:23:21.252Z,102021.44
2019-03-21T08:25:52.527Z,102040.30
2019-03-21T08:28:23.773Z,102024.88
2019-03-21T08:31:06.486Z,102028.33
2019-03-21T08:33:37.607Z,102020.59
2019-03-21T08:36:08.762Z,102018.81
2019-03-21T08:38:39.928Z,102011.02
2019-03-21T08:41:11.344Z,102019.39
2019-03-21T08:43:42.577Z,102012.75
2019-03-21T08:46:13.698Z,102017.56
2019-03-21T08:48:44.934Z,102013.16
2019-03-21T08:51:15.961Z,102012.45
2019-03-21T08:53:47.036Z,102005.00
2019-03-21T08:56:18.181Z,102003.72
2019-03-21T08:58:49.273Z,101994.75
2019-03-21T09:01:20.467Z,101997.36
2019-03-21T09:03:53.295Z,101997.77
2019-03-21T09:06:24.505Z,101996.19
2019-03-21T09:08:55.594Z,101986.06
2019-03-21T09:11:26.852Z,101995.53
2019-03-21T09:13:57.916Z,101992.59
2019-03-21T09:16:28.970Z,101988.66
2019-03-21T09:18:59.949Z,101989.94
2019-03-21T09:21:32.699Z,101980.06
2019-03-21T09:24:03.713Z,101977.14
2019-03-21T09:26:35.836Z,101983.97
2019-03-21T09:29:06.933Z,101985.91
2019-03-21T09:31:38.035Z,101977.47
2019-03-21T09:34:09.138Z,101984.36
2019-03-21T09:36:40.357Z,101981.43
2019-03-21T09:39:11.405Z,101983.33
2019-03-21T09:41:42.603Z,101988.50
2019-03-21T09:44:15.586Z,101970.59
2019-03-21T09:46:50.982Z,101977.36
2019-03-21T09:49:19.759Z,101969.09
2019-03-21T09:51:51.568Z,101958.23
2019-03-21T09:54:22.790Z,101973.55
2019-03-21T09:56:54.804Z,101967.40
2019-03-21T09:59:26.135Z,101966.81
2019-03-21T10:01:57.621Z,101963.08
2019-03-21T10:04:31.092Z,101962.25
2019-03-21T10:07:06.213Z,101950.52
2019-03-21T10:09:39.005Z,101947.48
2019-03-21T10:12:10.466Z,101951.14
2019-03-21T10:14:42.309Z,101936.73
2019-03-21T10:17:13.539Z,101925.70
2019-03-21T10:19:45.189Z,101938.89
2019-03-21T10:22:16.458Z,101926.27
2019-03-21T10:24:47.438Z,101922.09
2019-03-21T10:27:18.306Z,101921.47
2019-03-21T10:29:49.295Z,101912.73
2019-03-21T10:32:20.482Z,101904.20
2019-03-21T10:34:51.606Z,101909.14
2019-03-21T10:37:22.824Z,101899.50
2019-03-21T10:39:54.968Z,101897.47
2019-03-21T10:42:26.179Z,101885.57
2019-03-21T10:44:57.320Z,101880.02
2019-03-21T10:47:28.417Z,101874.67
2019-03-21T10:49:59.400Z,101874.59
2019-03-21T10:52:32.059Z,101865.80
2019-03-21T10:55:03.671Z,101879.94
2019-03-21T10:57:34.868Z,101867.82
2019-03-21T11:00:07.655Z,101861.31
2019-03-21T11:02:38.757Z,101868.73
2019-03-21T11:05:10.818Z,101869.14
2019-03-21T11:07:41.964Z,101858.48
2019-03-21T11:10:13.063Z,101846.33
2019-03-21T11:12:44.326Z,101854.13
2019-03-21T11:15:15.327Z,101844.16
2019-03-21T11:17:46.548Z,101853.48
2019-03-21T11:20:32.856Z,101836.39
2019-03-21T11:23:04.525Z,101843.58
2019-03-21T11:25:36.215Z,101844.88
2019-03-21T11:28:07.341Z,101840.73
2019-03-21T11:30:40.293Z,101829.23
2019-03-21T11:33:11.871Z,101838.16
2019-03-21T11:35:42.961Z,101840.66
2019-03-21T11:38:14.135Z,101829.89
2019-03-21T11:40:45.145Z,101823.58
2019-03-21T11:43:16.252Z,101827.70
2019-03-21T11:45:48.013Z,101818.80
2019-03-21T11:48:19.535Z,101816.48
2019-03-21T11:50:50.507Z,101825.33
2019-03-21T11:53:22.580Z,101816.83
2019-03-21T11:55:53.558Z,101812.78
2019-03-21T11:58:24.814Z,101818.41
2019-03-21T12:00:55.934Z,101815.82
2019-03-21T12:03:27.075Z,101807.89
2019-03-21T12:05:58.191Z,101805.13
2019-03-21T12:08:29.406Z,101800.52
2019-03-21T12:11:00.511Z,101789.87
2019-03-21T12:13:31.605Z,101799.45
2019-03-21T12:16:02.770Z,101789.95
2019-03-21T12:18:35.025Z,101790.36
2019-03-21T12:21:06.297Z,101791.71
2019-03-21T12:23:38.082Z,101789.86
2019-03-21T12:26:09.298Z,101770.16
2019-03-21T12:28:40.665Z,101782.18
2019-03-21T12:31:11.836Z,101769.89
2019-03-21T12:33:43.460Z,101772.19
2019-03-21T12:36:14.700Z,101772.51
2019-03-21T12:38:45.943Z,101767.88
2019-03-21T12:41:17.171Z,101760.72
2019-03-21T12:43:50.417Z,101751.27
2019-03-21T12:46:21.572Z,101768.10
2019-03-21T12:48:58.123Z,101757.66
2019-03-21T12:51:29.057Z,101758.58
2019-03-21T12:54:00.196Z,101751.69
2019-03-21T12:56:32.923Z,101753.97
2019-03-21T12:59:07.309Z,101744.31
2019-03-21T13:01:43.216Z,101751.52
2019-03-21T13:04:14.367Z,101741.09
2019-03-21T13:06:45.749Z,101740.39
2019-03-21T13:09:16.857Z,101736.73
2019-03-21T13:11:47.962Z,101731.99
2019-03-21T13:14:19.119Z,101740.52
2019-03-21T13:16:50.254Z,101731.94
2019-03-21T13:19:21.445Z,101739.92
2019-03-21T13:21:52.638Z,101738.05
2019-03-21T13:24:23.832Z,101736.76
2019-03-21T13:26:55.039Z,101723.57
2019-03-21T13:29:27.285Z,101738.90
2019-03-21T13:31:58.324Z,101729.06
2019-03-21T13:34:29.494Z,101728.85
2019-03-21T13:37:00.827Z,101744.25
2019-03-21T13:39:31.939Z,101736.84
2019-03-21T13:42:04.251Z,101733.57
2019-03-21T13:44:35.376Z,101731.24
2019-03-21T13:47:08.390Z,101722.13
2019-03-21T13:49:39.387Z,101724.20
2019-03-21T13:52:10.706Z,101717.26
2019-03-21T13:54:42.782Z,101714.55
2019-03-21T13:57:13.963Z,101710.92
2019-03-21T13:59:45.114Z,101711.26
2019-03-21T14:02:16.093Z,101702.48
2019-03-21T14:04:47.193Z,101704.92
2019-03-21T14:07:18.263Z,101716.28
2019-03-21T14:09:49.321Z,101693.70
2019-03-21T14:12:22.896Z,101698.32
2019-03-21T14:14:54.087Z,101707.87
2019-03-21T14:17:25.237Z,101703.14
2019-03-21T14:19:56.384Z,101706.70
2019-03-21T14:22:27.589Z,101710.53
2019-03-21T14:24:58.685Z,101711.91
2019-03-21T14:27:29.943Z,101717.97
2019-03-21T14:30:02.202Z,101708.33
2019-03-21T14:32:33.617Z,101720.55
2019-03-21T14:35:06.395Z,101709.45
2019-03-21T14:37:38.435Z,101727.75
2019-03-21T14:40:12.587Z,101717.36
2019-03-21T14:42:43.751Z,101722.27
2019-03-21T14:45:16.505Z,101721.78
2019-03-21T14:47:48.706Z,101720.00
2019-03-21T14:50:19.902Z,101717.44
2019-03-21T14:52:51.123Z,101717.09
2019-03-21T14:55:22.291Z,101720.00
2019-03-21T14:57:53.579Z,101720.94
2019-03-21T15:00:24.710Z,101720.02
2019-03-21T15:02:56.177Z,101716.98
2019-03-21T15:05:27.332Z,101722.64
2019-03-21T15:07:58.654Z,101722.43
2019-03-21T15:10:29.912Z,101721.14
2019-03-21T15:13:00.916Z,101729.45
2019-03-21T15:15:32.402Z,101726.92
2019-03-21T15:18:03.801Z,101733.67
2019-03-21T15:20:34.978Z,101736.02
2019-03-21T15:23:06.063Z,101741.25
2019-03-21T15:25:37.331Z,101735.11
2019-03-21T15:28:08.471Z,101740.44
2019-03-21T15:30:39.515Z,101738.69
2019-03-21T15:33:10.620Z,101743.16
2019-03-21T15:35:41.927Z,101747.30
2019-03-21T15:38:13.087Z,101742.43
2019-03-21T15:40:44.426Z,101745.31
2019-03-21T15:43:15.575Z,101746.80
2019-03-21T15:45:47.248Z,101740.66
2019-03-21T15:48:20.845Z,101749.44
2019-03-21T15:51:03.601Z,101746.59
2019-03-21T15:53:24.251Z,101748.66
2019-03-21T15:55:55.414Z,101742.58
2019-03-21T15:58:28.608Z,101745.80
2019-03-21T16:00:59.951Z,101748.96
2019-03-21T16:03:31.034Z,101731.47
2019-03-21T16:06:03.960Z,101743.84
2019-03-21T16:08:35.181Z,101739.51
2019-03-21T16:11:06.407Z,101744.78
2019-03-21T16:13:37.605Z,101738.24
2019-03-21T16:16:08.704Z,101744.70
2019-03-21T16:18:39.796Z,101751.80
2019-03-21T16:21:11.167Z,101747.52
2019-03-21T16:23:43.201Z,101755.78
2019-03-21T16:26:15.347Z,101746.27
2019-03-21T16:28:46.629Z,101747.57
2019-03-21T16:31:17.770Z,101749.47
2019-03-21T16:33:48.901Z,101759.20
2019-03-21T16:36:23.331Z,101752.39
2019-03-21T16:38:54.423Z,101761.45
2019-03-21T16:41:25.557Z,101763.67
2019-03-21T16:43:56.567Z,101765.66
2019-03-21T16:46:27.724Z,101778.83
2019-03-21T16:48:58.922Z,101776.22
2019-03-21T16:51:30.078Z,101779.30
2019-03-21T16:54:01.483Z,101782.84
2019-03-21T16:56:32.645Z,101787.20
2019-03-21T16:59:03.982Z,101782.08
2019-03-21T17:01:35.164Z,101791.88
2019-03-21T17:04:06.253Z,101794.16
2019-03-21T17:06:37.535Z,101788.83
2019-03-21T17:09:09.195Z,101794.61
2019-03-21T17:11:43.576Z,101791.93
2019-03-21T17:14:14.737Z,101794.61
2019-03-21T17:16:45.971Z,101809.23
2019-03-21T17:19:18.743Z,101814.52
2019-03-21T17:21:49.882Z,101811.52
2019-03-21T17:24:29.270Z,101823.08
2019-03-21T17:26:54.027Z,101823.94
2019-03-21T17:29:25.188Z,101834.56
2019-03-21T17:31:56.267Z,101835.02
2019-03-21T17:34:28.932Z,101832.48
2019-03-21T17:37:01.808Z,101834.03
2019-03-21T17:39:36.478Z,101844.35
2019-03-21T17:42:08.148Z,101833.50
2019-03-21T17:44:39.635Z,101845.98
2019-03-21T17:47:10.812Z,101856.06
2019-03-21T17:49:41.914Z,101849.88
2019-03-21T17:52:13.072Z,101859.05
2019-03-21T17:54:44.086Z,101853.95
2019-03-21T17:57:33.869Z,101852.45
2019-03-21T17:59:55.986Z,101860.02
2019-03-21T18:02:27.163Z,101860.50
2019-03-21T18:04:58.222Z,101862.06
2019-03-21T18:07:29.385Z,101866.88
2019-03-21T18:10:00.680Z,101874.34
2019-03-21T18:12:33.586Z,101875.33
2019-03-21T18:15:06.747Z,101875.91
2019-03-21T18:17:37.990Z,101875.98
2019-03-21T18:20:09.426Z,101882.55
2019-03-21T18:22:41.066Z,101894.56
2019-03-21T18:25:12.304Z,101887.58
2019-03-21T18:27:43.633Z,101888.63
2019-03-21T18:30:14.853Z,101894.72
2019-03-21T18:32:47.308Z,101896.14
2019-03-21T18:35:18.399Z,101890.84
2019-03-21T18:37:49.909Z,101886.19
2019-03-21T18:40:21.297Z,101896.77
2019-03-21T18:42:52.480Z,101905.96
2019-03-21T18:45:23.627Z,101906.00
2019-03-21T18:47:54.753Z,101905.17
2019-03-21T18:50:25.928Z,101907.45
2019-03-21T18:52:57.069Z,101909.21
2019-03-21T18:55:28.247Z,101911.52
2019-03-21T18:57:59.405Z,101915.05
2019-03-21T19:00:33.986Z,101904.64
2019-03-21T19:03:05.371Z,101913.52
2019-03-21T19:05:36.688Z,101912.75
2019-03-21T19:08:07.758Z,101913.29
2019-03-21T19:10:39.023Z,101923.44
2019-03-21T19:13:10.678Z,101919.94
2019-03-21T19:15:41.906Z,101923.55
2019-03-21T19:18:13.171Z,101924.33
2019-03-21T19:20:47.044Z,101934.83
2019-03-21T19:23:18.177Z,101938.32
2019-03-21T19:25:49.345Z,101932.74
2019-03-21T19:28:20.493Z,101938.86
2019-03-21T19:30:51.660Z,101943.71
2019-03-21T19:33:23.118Z,101951.17
2019-03-21T19:35:55.917Z,101942.06
2019-03-21T19:38:26.982Z,101935.14
2019-03-21T19:40:58.425Z,101928.61
2019-03-21T19:43:29.589Z,101932.97
2019-03-21T19:46:00.895Z,101930.73
2019-03-21T19:48:49.746Z,101927.88
2019-03-21T19:51:12.276Z,101930.00
2019-03-21T19:53:44.615Z,101926.94
2019-03-21T19:56:15.634Z,101922.16
2019-03-21T19:58:47.958Z,101921.74
2019-03-21T20:01:19.365Z,101920.46
2019-03-21T20:03:50.645Z,101933.55
2019-03-21T20:06:22.040Z,101934.91
2019-03-21T20:08:53.186Z,101932.30
2019-03-21T20:11:26.707Z,101938.13
2019-03-21T20:13:59.442Z,101934.18
2019-03-21T20:16:30.746Z,101934.59
2019-03-21T20:19:01.915Z,101941.13
2019-03-21T20:21:33.175Z,101947.24
2019-03-21T20:24:04.383Z,101943.28
2019-03-21T20:26:35.835Z,101945.94
2019-03-21T20:29:08.759Z,101944.23
2019-03-21T20:31:40.015Z,101938.56
2019-03-21T20:34:12.846Z,101940.72
2019-03-21T20:36:44.551Z,101937.15
2019-03-21T20:39:15.800Z,101935.47
2019-03-21T20:41:47.195Z,101937.20
2019-03-21T20:44:18.588Z,101935.91
2019-03-21T20:46:50.803Z,101931.95
2019-03-21T20:49:21.952Z,101932.87
2019-03-21T20:51:57.076Z,101933.23
2019-03-21T20:54:28.448Z,101932.45
2019-03-21T20:56:59.493Z,101929.36
2019-03-21T20:59:30.736Z,101933.73
2019-03-21T21:02:03.353Z,101927.27
2019-03-21T21:04:35.061Z,101927.70
2019-03-21T21:07:06.168Z,101920.70
2019-03-21T21:09:37.328Z,101922.91
2019-03-21T21:12:08.669Z,101917.69
2019-03-21T21:14:40.059Z,101923.77
2019-03-21T21:17:11.751Z,101920.30
2019-03-21T21:19:43.193Z,101919.39
2019-03-21T21:22:14.746Z,101915.11
2019-03-21T21:24:47.355Z,101914.64
2019-03-21T21:27:18.409Z,101914.67
2019-03-21T21:29:49.755Z,101913.73
2019-03-21T21:32:22.123Z,101912.88
2019-03-21T21:34:54.777Z,101911.19
2019-03-21T21:37:26.157Z,101911.19
2019-03-21T21:39:57.708Z,101917.66
2019-03-21T21:42:28.882Z,101905.86
2019-03-21T21:45:00.629Z,101914.22
2019-03-21T21:47:31.999Z,101912.09
2019-03-21T21:50:04.316Z,101909.00
2019-03-21T21:52:41.843Z,101916.87
2019-03-21T21:55:09.183Z,101914.64
2019-03-21T21:57:41.963Z,101906.36
2019-03-21T22:00:18.569Z,101903.26
2019-03-21T22:02:51.813Z,101902.79
2019-03-21T22:05:23.066Z,101905.25
2019-03-21T22:07:54.772Z,101899.64
2019-03-21T22:10:29.392Z,101901.29
2019-03-21T22:13:00.181Z,101908.37
2019-03-21T22:15:32.114Z,101908.91
2019-03-21T22:18:04.803Z,101911.47
2019-03-21T22:20:36.040Z,101903.65
2019-03-21T22:23:07.163Z,101913.91
2019-03-21T22:25:38.441Z,101914.34
2019-03-21T22:28:10.321Z,101906.06
2019-03-21T22:30:41.811Z,101910.39
2019-03-21T22:33:14.548Z,101913.03
2019-03-21T22:35:46.068Z,101916.08
2019-03-21T22:38:20.973Z,101918.80
2019-03-21T22:40:52.382Z,101912.77
2019-03-21T22:43:28.256Z,101918.94
2019-03-21T22:45:59.642Z,101913.18
2019-03-21T22:48:30.777Z,101911.45
2019-03-21T22:51:03.160Z,101911.89
2019-03-21T22:53:36.287Z,101915.41
2019-03-21T22:56:07.803Z,101916.31
2019-03-21T22:58:39.184Z,101912.03
2019-03-21T23:01:10.256Z,101911.55
2019-03-21T23:03:43.314Z,101905.46
2019-03-21T23:06:28.156Z,101905.48
2019-03-21T23:08:59.473Z,101904.17
2019-03-21T23:11:31.129Z,101897.22
2019-03-21T23:14:02.482Z,101907.28
2019-03-21T23:16:33.859Z,101905.48
2019-03-21T23:19:04.954Z,101908.09
2019-03-21T23:21:35.971Z,101906.38
2019-03-21T23:24:07.647Z,101914.96
2019-03-21T23:26:38.926Z,101914.96
2019-03-21T23:29:10.097Z,101909.77
2019-03-21T23:31:41.306Z,101910.20
2019-03-21T23:34:12.555Z,101908.02
2019-03-21T23:36:44.810Z,101905.74
2019-03-21T23:39:16.006Z,101910.15
2019-03-21T23:41:47.709Z,101907.07
2019-03-21T23:44:20.078Z,101900.17
2019-03-21T23:46:51.251Z,101900.57
2019-03-21T23:49:22.540Z,101892.70
2019-03-21T23:51:53.668Z,101890.97
2019-03-21T23:54:24.851Z,101884.02
2019-03-21T23:57:04.046Z,101886.17
2019-03-21T23:59:28.754Z,101882.20
